Main page
METAR-TAF:

METAR-TAF

Airports :

Chhatrapati Shivaji International Airport

Mumbai, India

latitude: 19-07N, longitude: 072-51E, elevation: 8 m

Current weather observation

The report was made 42 minutes ago, at 00:30 UTC
Calm wind
Temperature 27°C
Humidity 89%
Pressure 1010 hPa
Visibility: 3000 m
Few clouds at a height of 2000 ft
haze

METAR: VABB 110030Z 00000KT 3000 HZ FEW020 27/25 Q1010 NOSIG

Time: 06:42 (01:12 UTC)

Forecast

The report was made 2 hours and 12 minutes ago, at 23:00 UTC
Forecast valid from 11 at 00 UTC to 11 at 09 UTC
Wind 5 kt from the East/Southeast
Visibility: 2500 m
Scattered clouds at a height of 2000 ft
Scattered clouds at a height of 10000 ft
haze
Becoming
from 11 at 06 UTC to 11 at 08 UTC
Wind 12 kt from the West
Visibility: 3000 m
haze, smoke

TAF: VABB 102300Z 1100/1109 11005KT 2500 HZ SCT020 SCT100 BECMG 1106/1108 27012KT 3000 HZ FU

Weather observations and forecasts of more than 4000 airports (METAR and TAF reports).

The available stations are represented by yellow and red dots on the map.

Hover mouse over dot to see the name of the station.

Then click to see weather observations and forecasts.

To change the map : click on the green buttons with a black cross to zoom in, on the green button with a dash to zoom out, or on the green arrows for adjacent maps.


METAR-TAF: